»·PEaware :: N5055J KPSP-KSMX

N5055J :: KPSP-KSMX

FLIGHT INFORMATION

Flight Status: Arrived
Operator: Privately registered:
United States
More flights under this callsign
Pilot: Scott M. (16181)
Aircraft: ECLIPSE 500
(EA50)
More flights by this aircraft type
Origin: KPSP Palm Springs Intl
United States
Destination: KSMX Santa Maria Pub/Capt Hancock
United States
More flights between these airports :: More routes between these airports
Route:
File this flight plan on PilotEdge
Remarks:
Altitude:
(Current/Filed)
8,500ft
Speed:
(Current/Filed)
190kts
Departed: 28-Jan-19 06:29 PM
Arrived: 28-Jan-19 07:30 PM
Distance/Time
Traveled:
206nm/1:01
Distance/Time
To Go:
Arrived

Flight Plot

Page will automatically refresh every two minutes.

Flight plan parsing failed; only flown route is shown


Map Options




Map Legend


Flown Route
Filed Route
Departure Airport
Arrival Airport
Navaid (VOR, NDB)
Fix

Horizontal Profiles

Position Reports

Time Latitude Longitude Heading Altitude Ground
Speed
28-Jan-19 18:16 33.821616 -116.496790 55 429ft 0kts
28-Jan-19 18:17 33.821616 -116.496790 55 429ft 0kts
28-Jan-19 18:18 33.821616 -116.496790 55 429ft 0kts
28-Jan-19 18:19 33.821616 -116.496790 55 429ft 0kts
28-Jan-19 18:20 33.821616 -116.496790 55 429ft 0kts
28-Jan-19 18:21 33.821616 -116.496790 55 429ft 0kts
28-Jan-19 18:22 33.821616 -116.496790 55 429ft 0kts
28-Jan-19 18:23 33.821616 -116.496790 55 429ft 0kts
28-Jan-19 18:24 33.821616 -116.496790 55 429ft 0kts
28-Jan-19 18:25 33.821691 -116.496565 100 429ft 7kts
28-Jan-19 18:26 33.819914 -116.495989 232 429ft 7kts
28-Jan-19 18:27 33.819246 -116.497034 234 429ft 0kts
28-Jan-19 18:28 33.822289 -116.501071 323 429ft 89kts
28-Jan-19 18:29 33.854344 -116.533020 318 2701ft 187kts
28-Jan-19 18:30 33.905751 -116.572852 327 3893ft 235kts
28-Jan-19 18:31 33.957811 -116.620532 293 5081ft 222kts
28-Jan-19 18:32 33.970243 -116.682432 284 6153ft 210kts
28-Jan-19 18:33 33.983690 -116.753133 284 7360ft 220kts
28-Jan-19 18:34 33.997368 -116.826146 283 8468ft 231kts
28-Jan-19 18:35 34.011826 -116.903944 283 8499ft 234kts
28-Jan-19 18:36 34.025855 -116.980019 283 8498ft 229kts
28-Jan-19 18:37 34.039603 -117.054951 283 8499ft 229kts
28-Jan-19 18:38 34.053436 -117.130491 283 8499ft 230kts
28-Jan-19 18:39 34.067356 -117.206058 283 8502ft 231kts
28-Jan-19 18:40 34.081183 -117.281993 283 8498ft 231kts
28-Jan-19 18:41 34.095125 -117.357013 283 8499ft 227kts
28-Jan-19 18:43 34.109105 -117.430798 283 8500ft 225kts
28-Jan-19 18:44 34.122934 -117.504619 283 8503ft 226kts
28-Jan-19 18:45 34.137442 -117.581623 283 8501ft 240kts
28-Jan-19 18:46 34.152570 -117.661887 283 8500ft 244kts
28-Jan-19 18:47 34.167760 -117.742874 282 8499ft 246kts
28-Jan-19 18:48 34.182700 -117.823202 282 8499ft 239kts
28-Jan-19 18:49 34.197293 -117.902066 282 8512ft 238kts
28-Jan-19 18:50 34.211640 -117.979827 282 8530ft 234kts
28-Jan-19 18:51 34.225778 -118.056662 282 8555ft 232kts
28-Jan-19 18:52 34.239877 -118.133403 282 8571ft 233kts
28-Jan-19 18:53 34.254077 -118.210920 282 8572ft 236kts
28-Jan-19 18:54 34.268080 -118.287752 283 8583ft 235kts
28-Jan-19 18:55 34.292280 -118.360559 298 8583ft 233kts
28-Jan-19 18:56 34.323077 -118.430043 298 8581ft 232kts
28-Jan-19 18:57 34.353402 -118.498808 299 8581ft 231kts
28-Jan-19 18:58 34.383691 -118.567661 298 8582ft 231kts
28-Jan-19 18:59 34.413524 -118.635625 298 8582ft 231kts
28-Jan-19 19:00 34.443093 -118.703149 298 8582ft 230kts
28-Jan-19 19:01 34.473234 -118.772060 298 8583ft 231kts
28-Jan-19 19:02 34.503086 -118.840735 298 8576ft 227kts
28-Jan-19 19:02 34.527702 -118.897321 298 8565ft 227kts
28-Jan-19 19:03 34.557750 -118.966292 298 8499ft 234kts
28-Jan-19 19:05 34.593577 -119.048518 298 8482ft 234kts
28-Jan-19 19:06 34.623549 -119.117854 297 8480ft 227kts
28-Jan-19 19:06 34.647835 -119.174174 297 8368ft 222kts
28-Jan-19 19:07 34.676992 -119.241789 297 7772ft 227kts
28-Jan-19 19:08 34.706605 -119.310669 298 7170ft 228kts
28-Jan-19 19:09 34.736121 -119.379350 298 6569ft 226kts
28-Jan-19 19:10 34.764826 -119.446242 298 6480ft 220kts
28-Jan-19 19:11 34.780986 -119.517737 279 6483ft 221kts
28-Jan-19 19:12 34.790622 -119.591859 279 6500ft 221kts
28-Jan-19 19:13 34.800244 -119.666132 278 6499ft 220kts
28-Jan-19 19:14 34.809592 -119.738623 278 6500ft 214kts
28-Jan-19 19:15 34.818471 -119.807813 278 6300ft 195kts
28-Jan-19 19:16 34.826627 -119.871554 278 5698ft 187kts
28-Jan-19 19:17 34.834453 -119.933257 278 5092ft 180kts
28-Jan-19 19:18 34.842128 -119.993382 278 4541ft 175kts
28-Jan-19 19:19 34.849362 -120.051898 279 4466ft 180kts
28-Jan-19 19:20 34.857170 -120.113545 279 3954ft 186kts
28-Jan-19 19:21 34.864774 -120.174213 280 3346ft 171kts
28-Jan-19 19:22 34.866956 -120.230113 258 2598ft 159kts
28-Jan-19 19:23 34.858861 -120.273596 257 2537ft 123kts
28-Jan-19 19:24 34.852441 -120.314722 263 2381ft 123kts
28-Jan-19 19:25 34.845969 -120.355536 259 1939ft 120kts
28-Jan-19 19:26 34.847150 -120.391724 300 1354ft 94kts
28-Jan-19 19:27 34.866002 -120.414102 318 1026ft 97kts
28-Jan-19 19:28 34.885632 -120.437212 316 540ft 99kts
28-Jan-19 19:29 34.901773 -120.456572 312 264ft 37kts
28-Jan-19 19:30 34.903346 -120.456832 46 264ft 0kts
28-Jan-19 19:31 34.903053 -120.454846 134 264ft 10kts
28-Jan-19 19:32 34.900995 -120.452242 132 264ft 6kts
28-Jan-19 19:33 34.900967 -120.451939 47 264ft 0kts
28-Jan-19 19:34 34.900967 -120.451939 47 264ft 0kts

Navigation Log

Ident Type
Flight plan parsing failed, navigation log unavailable